This is the latest recevied weather packets stored in our database for station/object OK4PZ-5. If no packets are shown the sender has not sent any weather packets the latest 10 day(s).
| Time | Temp. | Humidity | Pressure | Rain* | Wind** | Luminosity | Snow |
|---|---|---|---|---|---|---|---|
| 1777667402 | 8.89° C | 79% | 1028 hPa | 0 mm | - | - | - |
| 1777666502 | 8.89° C | 76% | 1028 hPa | 0 mm | - | - | - |
| 1777665602 | 9.44° C | 73% | 1028 hPa | 0 mm | - | - | - |
| 1777664702 | 10° C | 71% | 1028 hPa | 0 mm | - | - | - |
| 1777663802 | 10.56° C | 70% | 1028 hPa | 0 mm | - | - | - |
| 1777662902 | 11.11° C | 65% | 1028 hPa | 0 mm | - | - | - |
| 1777662002 | 11.67° C | 64% | 1028 hPa | 0 mm | - | - | - |
| 1777661103 | 13.33° C | 58% | 1028 hPa | 0 mm | - | - | - |
| 1777660202 | 14.44° C | 49% | 1027 hPa | 0 mm | - | - | - |
| 1777658403 | 16.67° C | 42% | 1027 hPa | 0 mm | - | - | - |
| 1777657502 | 16.67° C | 39% | 1027 hPa | 0 mm | - | - | - |
| 1777656602 | 17.22° C | 39% | 1027 hPa | 0 mm | - | - | - |
| 1777655702 | 17.78° C | 37% | 1027 hPa | 0 mm | - | - | - |
| 1777654802 | 18.33° C | 36% | 1027 hPa | 0 mm | - | - | - |
| 1777653902 | 18.33° C | 35% | 1027 hPa | 0 mm | - | - | - |
| 1777653003 | 18.89° C | 35% | 1027 hPa | 0 mm | - | - | - |
| 1777652102 | 18.89° C | 34% | 1027 hPa | 0 mm | - | - | - |
| 1777651202 | 18.89° C | 34% | 1027 hPa | 0 mm | - | - | - |
| 1777650302 | 19.44° C | 35% | 1027 hPa | 0 mm | - | - | - |
| 1777649403 | 19.44° C | 34% | 1027 hPa | 0 mm | - | - | - |
| 1777648502 | 20° C | 34% | 1027 hPa | 0 mm | - | - | - |
| 1777647602 | 19.44° C | 34% | 1027 hPa | 0 mm | - | - | - |
| 1777646702 | 19.44° C | 34% | 1028 hPa | 0 mm | - | - | - |
| 1777645803 | 20° C | 34% | 1028 hPa | 0 mm | - | - | - |
| 1777644903 | 18.89° C | 35% | 1028 hPa | 0 mm | - | - | - |
* Rain latest hour (hover to see other rain measurements)
** Current wind speed in m/s (hover to see current wind gust speed)